Time,TemperatureF,DewpointF,PressureIn,WindDirection,WindDirectionDegrees,WindSpeedMPH,WindSpeedGustMPH,Humidity,HourlyPrecipIn,Conditions,Clouds,dailyrainin,SoftwareType,DateUTC
2013-03-18 00:04:00,13.2,7.9,30.15,NE,55,0.0,1.0,79,0.00,,,0.00,VWS V12.07,2013-03-18 05:04:00,
2013-03-18 00:09:00,13.1,8.1,30.15,NE,55,0.0,1.0,80,0.00,,,0.00,VWS V12.07,2013-03-18 05:09:00,
2013-03-18 00:14:00,13.0,8.0,30.15,ENE,57,0.0,2.0,80,0.00,,,0.00,VWS V12.07,2013-03-18 05:14:00,
2013-03-18 00:19:00,13.0,8.0,30.15,ESE,104,0.0,2.0,80,0.00,,,0.00,VWS V12.07,2013-03-18 05:19:00,
2013-03-18 00:24:00,12.9,7.9,30.15,ESE,103,0.0,2.0,80,0.00,,,0.00,VWS V12.07,2013-03-18 05:24:00,
2013-03-18 00:29:00,12.9,7.9,30.15,ENE,61,0.0,4.0,80,0.00,,,0.00,VWS V12.07,2013-03-18 05:29:00,
2013-03-18 00:34:00,12.8,7.8,30.15,NE,46,0.0,0.0,80,0.00,,,0.00,VWS V12.07,2013-03-18 05:34:00,
2013-03-18 00:39:00,12.7,7.7,30.15,NE,46,0.0,0.0,80,0.00,,,0.00,VWS V12.07,2013-03-18 05:39:00,
2013-03-18 00:44:00,12.7,8.0,30.14,NE,45,0.0,0.0,81,0.00,,,0.00,VWS V12.07,2013-03-18 05:44:00,
2013-03-18 00:54:00,13.0,8.6,30.14,NE,46,0.0,0.0,82,0.00,,,0.00,VWS V12.07,2013-03-18 05:54:00,
2013-03-18 01:04:00,13.2,8.8,30.14,NE,45,0.0,0.0,82,0.00,,,0.00,VWS V12.07,2013-03-18 06:04:00,
2013-03-18 01:09:00,13.4,8.9,30.15,NE,46,0.0,0.0,82,0.00,,,0.00,VWS V12.07,2013-03-18 06:09:00,
2013-03-18 01:14:00,13.5,9.0,30.14,NE,45,0.0,0.0,82,0.00,,,0.00,VWS V12.07,2013-03-18 06:14:00,
2013-03-18 01:19:00,13.8,9.3,30.14,NNE,14,0.0,3.0,82,0.00,,,0.00,VWS V12.07,2013-03-18 06:19:00,
2013-03-18 01:24:00,13.9,9.4,30.14,NNE,15,0.0,3.0,82,0.00,,,0.00,VWS V12.07,2013-03-18 06:24:00,
2013-03-18 01:29:00,14.0,9.5,30.13,NNE,15,0.0,3.0,82,0.00,,,0.00,VWS V12.07,2013-03-18 06:29:00,
2013-03-18 01:34:00,14.1,9.6,30.13,NNE,15,1.0,1.0,82,0.00,,,0.00,VWS V12.07,2013-03-18 06:34:00,
2013-03-18 01:39:00,14.2,9.7,30.13,NW,305,0.0,2.0,82,0.00,,,0.00,VWS V12.07,2013-03-18 06:39:00,
2013-03-18 01:44:00,14.2,9.7,30.13,NW,305,0.0,2.0,82,0.00,,,0.00,VWS V12.07,2013-03-18 06:44:00,
2013-03-18 01:49:00,14.2,9.7,30.13,NW,305,0.0,2.0,82,0.00,,,0.00,VWS V12.07,2013-03-18 06:49:00,
2013-03-18 01:54:00,14.2,9.7,30.12,ENE,75,0.0,2.0,82,0.00,,,0.00,VWS V12.07,2013-03-18 06:54:00,
2013-03-18 01:59:00,14.2,9.7,30.12,ENE,75,0.0,2.0,82,0.00,,,0.00,VWS V12.07,2013-03-18 06:59:00,
2013-03-18 02:04:00,14.3,10.1,30.11,ESE,114,0.0,0.0,83,0.00,,,0.00,VWS V12.07,2013-03-18 07:04:00,
2013-03-18 02:09:00,14.4,10.2,30.12,NNE,32,0.0,2.0,83,0.00,,,0.00,VWS V12.07,2013-03-18 07:09:00,
2013-03-18 02:14:00,14.4,10.2,30.12,NE,51,1.0,2.0,83,0.00,,,0.00,VWS V12.07,2013-03-18 07:14:00,
2013-03-18 02:19:00,14.6,10.7,30.11,ENE,72,0.0,2.0,84,0.00,,,0.00,VWS V12.07,2013-03-18 07:19:00,
2013-03-18 02:24:00,14.7,10.8,30.11,ENE,72,0.0,2.0,84,0.00,,,0.00,VWS V12.07,2013-03-18 07:24:00,
2013-03-18 02:34:00,14.7,10.8,30.10,North,355,0.0,2.0,84,0.00,,,0.00,VWS V12.07,2013-03-18 07:34:00,
2013-03-18 02:39:00,14.7,10.8,30.10,SSE,161,0.0,2.0,84,0.00,,,0.00,VWS V12.07,2013-03-18 07:39:00,
2013-03-18 02:44:00,14.7,10.8,30.09,SE,132,0.0,2.0,84,0.00,,,0.00,VWS V12.07,2013-03-18 07:44:00,
2013-03-18 02:49:00,14.7,10.8,30.09,ESE,105,0.0,2.0,84,0.00,,,0.00,VWS V12.07,2013-03-18 07:49:00,
2013-03-18 02:54:00,14.8,10.9,30.08,North,11,0.0,2.0,84,0.00,,,0.00,VWS V12.07,2013-03-18 07:54:00,
2013-03-18 02:59:00,14.8,11.1,30.08,North,11,0.0,2.0,85,0.00,,,0.00,VWS V12.07,2013-03-18 07:59:00,
2013-03-18 03:04:00,14.8,10.9,30.08,SSW,204,0.0,2.0,84,0.00,,,0.00,VWS V12.07,2013-03-18 08:04:00,
2013-03-18 03:09:00,14.5,10.6,30.08,SSW,204,0.0,2.0,84,0.00,,,0.00,VWS V12.07,2013-03-18 08:09:00,
2013-03-18 03:14:00,14.3,10.4,30.07,SSW,204,0.0,2.0,84,0.00,,,0.00,VWS V12.07,2013-03-18 08:14:00,
2013-03-18 03:19:00,14.1,10.2,30.07,SSW,204,0.0,2.0,84,0.00,,,0.00,VWS V12.07,2013-03-18 08:19:00,
2013-03-18 03:24:00,14.0,10.3,30.06,ESE,108,0.0,3.0,85,0.00,,,0.00,VWS V12.07,2013-03-18 08:24:00,
2013-03-18 03:29:00,13.9,10.2,30.06,ESE,106,0.0,3.0,85,0.00,,,0.00,VWS V12.07,2013-03-18 08:29:00,
2013-03-18 03:34:00,13.7,10.0,30.06,ESE,106,0.0,0.0,85,0.00,,,0.00,VWS V12.07,2013-03-18 08:34:00,
2013-03-18 03:39:00,13.7,10.3,30.06,NNE,29,3.0,3.0,86,0.00,,,0.00,VWS V12.07,2013-03-18 08:39:00,
2013-03-18 03:44:00,13.8,10.4,30.05,NNE,32,1.0,4.0,86,0.00,,,0.00,VWS V12.07,2013-03-18 08:44:00,
2013-03-18 03:49:00,13.9,10.5,30.05,NE,50,0.0,4.0,86,0.00,,,0.00,VWS V12.07,2013-03-18 08:49:00,
2013-03-18 03:54:00,13.9,10.5,30.04,NE,49,0.0,4.0,86,0.00,,,0.00,VWS V12.07,2013-03-18 08:54:00,
2013-03-18 03:59:00,13.9,10.8,30.04,SE,130,0.0,4.0,87,0.00,,,0.00,VWS V12.07,2013-03-18 08:59:00,
2013-03-18 04:04:00,14.0,10.9,30.03,ENE,71,0.0,0.0,87,0.00,,,0.00,VWS V12.07,2013-03-18 09:04:00,
2013-03-18 04:09:00,14.1,10.9,30.03,ENE,71,0.0,1.0,87,0.00,,,0.00,VWS V12.07,2013-03-18 09:09:00,
2013-03-18 04:14:00,14.3,11.1,30.03,ENE,71,0.0,1.0,87,0.00,,,0.00,VWS V12.07,2013-03-18 09:14:00,
2013-03-18 04:19:00,14.4,11.2,30.03,ENE,71,0.0,1.0,87,0.00,,,0.00,VWS V12.07,2013-03-18 09:19:00,
2013-03-18 04:24:00,14.5,11.3,30.03,ENE,71,0.0,1.0,87,0.00,,,0.00,VWS V12.07,2013-03-18 09:24:00,
2013-03-18 04:29:00,14.5,11.3,30.03,ENE,71,1.0,1.0,87,0.00,,,0.00,VWS V12.07,2013-03-18 09:29:00,
2013-03-18 04:34:00,14.5,11.3,30.03,ENE,70,0.0,0.0,87,0.00,,,0.00,VWS V12.07,2013-03-18 09:34:00,
2013-03-18 04:39:00,14.4,11.2,30.03,ENE,69,0.0,1.0,87,0.00,,,0.00,VWS V12.07,2013-03-18 09:39:00,
2013-03-18 04:44:00,14.4,11.2,30.02,ENE,68,0.0,1.0,87,0.00,,,0.00,VWS V12.07,2013-03-18 09:44:00,
2013-03-18 04:49:00,14.3,11.1,30.02,ENE,69,0.0,1.0,87,0.00,,,0.00,VWS V12.07,2013-03-18 09:49:00,
2013-03-18 04:59:00,14.3,11.1,30.02,ENE,69,0.0,1.0,87,0.00,,,0.00,VWS V12.07,2013-03-18 09:59:00,
2013-03-18 05:04:00,14.4,11.2,30.01,ENE,68,0.0,0.0,87,0.00,,,0.00,VWS V12.07,2013-03-18 10:04:00,
2013-03-18 05:09:00,14.4,11.2,30.01,ENE,69,0.0,0.0,87,0.00,,,0.00,VWS V12.07,2013-03-18 10:09:00,
2013-03-18 05:14:00,14.4,11.2,30.01,ENE,69,0.0,0.0,87,0.00,,,0.00,VWS V12.07,2013-03-18 10:14:00,
2013-03-18 05:24:00,14.4,11.2,30.00,ENE,69,0.0,0.0,87,0.00,,,0.00,VWS V12.07,2013-03-18 10:24:00,
2013-03-18 05:29:00,14.5,11.6,30.00,ENE,66,1.0,2.0,88,0.00,,,0.00,VWS V12.07,2013-03-18 10:29:00,
2013-03-18 05:39:00,14.7,11.5,29.99,ENE,66,0.0,1.0,87,0.00,,,0.00,VWS V12.07,2013-03-18 10:39:00,
2013-03-18 05:44:00,14.6,11.4,29.98,ENE,66,0.0,1.0,87,0.00,,,0.00,VWS V12.07,2013-03-18 10:44:00,
2013-03-18 05:49:00,14.5,11.3,29.98,ENE,66,0.0,1.0,87,0.00,,,0.00,VWS V12.07,2013-03-18 10:49:00,
2013-03-18 05:54:00,14.5,11.3,29.98,East,96,0.0,2.0,87,0.00,,,0.00,VWS V12.07,2013-03-18 10:54:00,
2013-03-18 06:04:00,14.4,11.2,29.98,SSE,156,0.0,0.0,87,0.00,,,0.00,VWS V12.07,2013-03-18 11:04:00,
2013-03-18 06:09:00,14.4,11.2,29.97,SSE,155,0.0,0.0,87,0.00,,,0.00,VWS V12.07,2013-03-18 11:09:00,
2013-03-18 06:14:00,14.4,11.5,29.97,SSE,154,0.0,1.0,88,0.00,,,0.00,VWS V12.07,2013-03-18 11:14:00,
2013-03-18 06:19:00,14.7,11.8,29.97,NE,45,0.0,3.0,88,0.00,,,0.00,VWS V12.07,2013-03-18 11:19:00,
2013-03-18 06:24:00,14.9,12.2,29.97,NE,45,0.0,3.0,89,0.00,,,0.00,VWS V12.07,2013-03-18 11:24:00,
2013-03-18 06:29:00,15.3,12.6,29.97,NE,45,0.0,3.0,89,0.00,,,0.00,VWS V12.07,2013-03-18 11:29:00,
2013-03-18 06:34:00,15.6,12.9,29.97,NNW,337,0.0,0.0,89,0.00,,,0.00,VWS V12.07,2013-03-18 11:34:00,
2013-03-18 06:39:00,16.0,13.3,29.96,WSW,240,0.0,2.0,89,0.00,,,0.00,VWS V12.07,2013-03-18 11:39:00,
2013-03-18 06:44:00,16.3,13.6,29.95,East,94,0.0,2.0,89,0.00,,,0.00,VWS V12.07,2013-03-18 11:44:00,
2013-03-18 06:49:00,16.6,13.9,29.94,NNE,32,0.0,2.0,89,0.00,,,0.00,VWS V12.07,2013-03-18 11:49:00,
2013-03-18 06:59:00,17.0,14.3,29.94,NNE,18,0.0,3.0,89,0.00,,,0.00,VWS V12.07,2013-03-18 11:59:00,
2013-03-18 07:04:00,17.2,14.5,29.94,East,84,0.0,1.0,89,0.00,,,0.00,VWS V12.07,2013-03-18 12:04:00,
2013-03-18 07:09:00,17.3,14.6,29.93,NE,44,0.0,2.0,89,0.00,,,0.00,VWS V12.07,2013-03-18 12:09:00,
2013-03-18 07:14:00,17.5,14.8,29.92,East,96,3.0,3.0,89,0.00,,,0.00,VWS V12.07,2013-03-18 12:14:00,
2013-03-18 07:19:00,17.6,14.9,29.92,East,89,0.0,5.0,89,0.00,,,0.00,VWS V12.07,2013-03-18 12:19:00,
2013-03-18 07:24:00,17.7,15.0,29.92,NNE,26,0.0,5.0,89,0.00,,,0.00,VWS V12.07,2013-03-18 12:24:00,
2013-03-18 07:29:00,17.9,15.2,29.92,East,90,0.0,5.0,89,0.00,,,0.00,VWS V12.07,2013-03-18 12:29:00,
2013-03-18 07:34:00,18.1,15.4,29.91,ESE,119,0.0,4.0,89,0.00,,,0.00,VWS V12.07,2013-03-18 12:34:00,
2013-03-18 07:39:00,18.4,15.7,29.91,SSE,151,0.0,6.0,89,0.00,,,0.00,VWS V12.07,2013-03-18 12:39:00,
2013-03-18 07:44:00,18.6,15.9,29.91,SE,132,0.0,6.0,89,0.00,,,0.00,VWS V12.07,2013-03-18 12:44:00,
2013-03-18 07:54:00,18.9,16.2,29.91,SE,136,1.0,6.0,89,0.00,,,0.00,VWS V12.07,2013-03-18 12:54:00,
2013-03-18 07:59:00,19.1,16.4,29.91,ENE,64,0.0,6.0,89,0.00,,,0.00,VWS V12.07,2013-03-18 12:59:00,
2013-03-18 08:04:00,19.3,16.6,29.91,NNE,33,0.0,1.0,89,0.00,,,0.00,VWS V12.07,2013-03-18 13:04:00,
2013-03-18 08:09:00,19.4,16.7,29.91,SSE,161,0.0,3.0,89,0.00,,,0.00,VWS V12.07,2013-03-18 13:09:00,
2013-03-18 08:14:00,19.6,16.9,29.90,SSW,195,0.0,5.0,89,0.00,,,0.00,VWS V12.07,2013-03-18 13:14:00,
2013-03-18 08:19:00,19.7,17.0,29.90,South,169,0.0,5.0,89,0.00,,,0.00,VWS V12.07,2013-03-18 13:19:00,
2013-03-18 08:24:00,19.8,16.8,29.89,ENE,75,2.0,5.0,88,0.00,,,0.00,VWS V12.07,2013-03-18 13:24:00,
2013-03-18 08:34:00,20.0,17.0,29.89,ENE,69,1.0,1.0,88,0.00,,,0.00,VWS V12.07,2013-03-18 13:34:00,
2013-03-18 08:39:00,20.2,17.2,29.88,NE,52,0.0,3.0,88,0.00,,,0.00,VWS V12.07,2013-03-18 13:39:00,
2013-03-18 08:44:00,20.3,17.1,29.88,WNW,294,4.0,5.0,87,0.00,,,0.00,VWS V12.07,2013-03-18 13:44:00,
2013-03-18 08:54:00,20.6,17.4,29.88,SE,129,1.0,5.0,87,0.00,,,0.00,VWS V12.07,2013-03-18 13:54:00,
2013-03-18 08:59:00,20.7,17.5,29.87,South,172,0.0,5.0,87,0.00,,,0.00,VWS V12.07,2013-03-18 13:59:00,
2013-03-18 09:04:00,20.8,17.3,29.87,SE,125,0.0,3.0,86,0.00,,,0.00,VWS V12.07,2013-03-18 14:04:00,
2013-03-18 09:09:00,21.0,17.5,29.86,ENE,66,2.0,3.0,86,0.00,,,0.00,VWS V12.07,2013-03-18 14:09:00,
2013-03-18 09:19:00,21.3,17.8,29.86,SSE,151,0.0,4.0,86,0.00,,,0.00,VWS V12.07,2013-03-18 14:19:00,
2013-03-18 09:24:00,21.5,18.0,29.87,NNE,24,0.0,4.0,86,0.00,,,0.00,VWS V12.07,2013-03-18 14:24:00,
2013-03-18 09:29:00,21.6,17.8,29.87,WSW,238,0.0,4.0,85,0.00,,,0.00,VWS V12.07,2013-03-18 14:29:00,
2013-03-18 09:34:00,21.8,18.0,29.87,North,355,0.0,4.0,85,0.00,,,0.00,VWS V12.07,2013-03-18 14:34:00,
2013-03-18 09:39:00,21.9,18.1,29.86,SE,135,1.0,5.0,85,0.00,,,0.00,VWS V12.07,2013-03-18 14:39:00,
2013-03-18 09:44:00,22.1,18.0,29.86,ESE,106,0.0,5.0,84,0.00,,,0.00,VWS V12.07,2013-03-18 14:44:00,
2013-03-18 09:49:00,22.3,18.2,29.87,North,5,0.0,5.0,84,0.00,,,0.00,VWS V12.07,2013-03-18 14:49:00,
2013-03-18 09:54:00,22.4,18.3,29.86,SE,132,1.0,5.0,84,0.00,,,0.00,VWS V12.07,2013-03-18 14:54:00,
2013-03-18 09:59:00,22.6,18.5,29.86,South,175,0.0,5.0,84,0.00,,,0.00,VWS V12.07,2013-03-18 14:59:00,
2013-03-18 10:04:00,22.6,18.5,29.86,ENE,64,1.0,3.0,84,0.00,,,0.00,VWS V12.07,2013-03-18 15:04:00,
2013-03-18 10:09:00,22.7,18.6,29.85,ESE,119,0.0,4.0,84,0.00,,,0.00,VWS V12.07,2013-03-18 15:09:00,
2013-03-18 10:14:00,22.8,18.7,29.85,ESE,121,0.0,4.0,84,0.00,,,0.00,VWS V12.07,2013-03-18 15:14:00,
2013-03-18 10:19:00,22.9,18.5,29.85,SSE,163,1.0,5.0,83,0.00,,,0.00,VWS V12.07,2013-03-18 15:19:00,
2013-03-18 10:24:00,23.0,18.6,29.84,ESE,115,0.0,5.0,83,0.00,,,0.00,VWS V12.07,2013-03-18 15:24:00,
2013-03-18 10:34:00,23.3,18.9,29.85,SSE,164,1.0,3.0,83,0.00,,,0.00,VWS V12.07,2013-03-18 15:34:00,
2013-03-18 10:39:00,23.4,19.0,29.84,North,355,0.0,3.0,83,0.00,,,0.00,VWS V12.07,2013-03-18 15:39:00,
2013-03-18 10:44:00,23.5,19.1,29.83,North,355,0.0,3.0,83,0.00,,,0.00,VWS V12.07,2013-03-18 15:44:00,
2013-03-18 10:49:00,23.7,19.3,29.83,NE,35,1.0,3.0,83,0.00,,,0.00,VWS V12.07,2013-03-18 15:49:00,
2013-03-18 10:59:00,24.1,19.7,29.82,West,260,0.0,4.0,83,0.00,,,0.00,VWS V12.07,2013-03-18 15:59:00,
2013-03-18 11:04:00,24.3,19.9,29.81,West,260,0.0,0.0,83,0.00,,,0.00,VWS V12.07,2013-03-18 16:04:00,
2013-03-18 11:09:00,24.6,19.9,29.81,SE,143,1.0,4.0,82,0.00,,,0.00,VWS V12.07,2013-03-18 16:09:00,
2013-03-18 11:19:00,24.7,20.0,29.80,North,355,1.0,4.0,82,0.00,,,0.00,VWS V12.07,2013-03-18 16:19:00,
2013-03-18 11:24:00,24.8,20.1,29.79,ENE,61,0.0,9.0,82,0.00,,,0.00,VWS V12.07,2013-03-18 16:24:00,
2013-03-18 11:29:00,25.0,20.3,29.78,SE,138,0.0,9.0,82,0.00,,,0.00,VWS V12.07,2013-03-18 16:29:00,
2013-03-18 11:34:00,25.4,20.4,29.78,West,276,0.0,1.0,81,0.00,,,0.00,VWS V12.07,2013-03-18 16:34:00,
2013-03-18 11:39:00,26.0,20.7,29.78,NE,55,0.0,4.0,80,0.00,,,0.00,VWS V12.07,2013-03-18 16:39:00,
2013-03-18 11:49:00,26.5,20.9,29.77,East,80,0.0,4.0,79,0.00,,,0.00,VWS V12.07,2013-03-18 16:49:00,
2013-03-18 11:54:00,26.6,20.7,29.76,NE,44,2.0,4.0,78,0.00,,,0.00,VWS V12.07,2013-03-18 16:54:00,
2013-03-18 11:59:00,26.5,20.9,29.76,NE,53,0.0,4.0,79,0.00,,,0.00,VWS V12.07,2013-03-18 16:59:00,
2013-03-18 12:04:00,26.4,20.8,29.76,NE,40,0.0,2.0,79,0.00,,,0.00,VWS V12.07,2013-03-18 17:04:00,
2013-03-18 12:09:00,26.4,20.8,29.75,NE,45,1.0,3.0,79,0.00,,,0.00,VWS V12.07,2013-03-18 17:09:00,
2013-03-18 12:14:00,26.5,20.6,29.75,NNE,13,0.0,3.0,78,0.00,,,0.00,VWS V12.07,2013-03-18 17:14:00,
2013-03-18 12:19:00,26.6,20.7,29.75,NE,34,1.0,5.0,78,0.00,,,0.00,VWS V12.07,2013-03-18 17:19:00,
2013-03-18 12:24:00,26.6,20.7,29.74,NNE,28,0.0,5.0,78,0.00,,,0.00,VWS V12.07,2013-03-18 17:24:00,
2013-03-18 12:34:00,27.1,21.2,29.73,North,11,2.0,3.0,78,0.00,,,0.00,VWS V12.07,2013-03-18 17:34:00,
2013-03-18 12:39:00,27.2,21.3,29.73,NE,50,2.0,4.0,78,0.00,,,0.00,VWS V12.07,2013-03-18 17:39:00,
2013-03-18 12:49:00,26.9,21.6,29.72,NNE,19,0.0,4.0,80,0.00,,,0.00,VWS V12.07,2013-03-18 17:49:00,
2013-03-18 12:54:00,26.8,21.8,29.72,NNE,20,0.0,4.0,81,0.00,,,0.00,VWS V12.07,2013-03-18 17:54:00,
2013-03-18 12:59:00,26.7,22.0,29.71,NNE,20,0.0,4.0,82,0.00,,,0.00,VWS V12.07,2013-03-18 17:59:00,
2013-03-18 13:04:00,26.5,22.0,29.72,NNE,19,0.0,3.0,83,0.00,,,0.00,VWS V12.07,2013-03-18 18:04:00,
2013-03-18 13:09:00,26.5,22.3,29.72,NNE,20,0.0,3.0,84,0.00,,,0.00,VWS V12.07,2013-03-18 18:09:00,
2013-03-18 13:19:00,26.4,22.2,29.72,ESE,105,0.0,5.0,84,0.00,,,0.00,VWS V12.07,2013-03-18 18:19:00,
2013-03-18 13:24:00,26.4,22.5,29.72,ESE,106,0.0,5.0,85,0.00,,,0.00,VWS V12.07,2013-03-18 18:24:00,
2013-03-18 13:29:00,26.4,22.8,29.72,ESE,102,0.0,5.0,86,0.00,,,0.00,VWS V12.07,2013-03-18 18:29:00,
2013-03-18 13:39:00,26.3,23.0,29.71,ESE,103,0.0,1.0,87,0.00,,,0.00,VWS V12.07,2013-03-18 18:39:00,
2013-03-18 13:44:00,26.3,23.0,29.71,ESE,102,0.0,1.0,87,0.00,,,0.00,VWS V12.07,2013-03-18 18:44:00,
2013-03-18 13:49:00,26.5,23.2,29.71,ESE,102,0.0,1.0,87,0.00,,,0.00,VWS V12.07,2013-03-18 18:49:00,
2013-03-18 13:54:00,26.7,23.4,29.71,SSW,194,2.0,2.0,87,0.00,,,0.00,VWS V12.07,2013-03-18 18:54:00,
2013-03-18 13:59:00,26.9,23.6,29.70,SW,218,0.0,2.0,87,0.00,,,0.00,VWS V12.07,2013-03-18 18:59:00,
2013-03-18 14:04:00,27.0,23.6,29.70,SW,219,0.0,1.0,87,0.00,,,0.00,VWS V12.07,2013-03-18 19:04:00,
2013-03-18 14:09:00,27.3,24.0,29.70,WNW,302,0.0,2.0,87,0.00,,,0.00,VWS V12.07,2013-03-18 19:09:00,
2013-03-18 14:14:00,27.5,24.1,29.69,NNW,329,0.0,3.0,87,0.00,,,0.00,VWS V12.07,2013-03-18 19:14:00,
2013-03-18 14:19:00,27.6,24.0,29.69,NW,314,1.0,3.0,86,0.00,,,0.00,VWS V12.07,2013-03-18 19:19:00,
2013-03-18 14:24:00,27.6,24.0,29.68,NW,315,0.0,3.0,86,0.00,,,0.00,VWS V12.07,2013-03-18 19:24:00,
2013-03-18 14:29:00,27.6,24.0,29.68,NNW,332,2.0,3.0,86,0.00,,,0.00,VWS V12.07,2013-03-18 19:29:00,
2013-03-18 14:34:00,27.5,23.6,29.67,West,265,0.0,1.0,85,0.00,,,0.00,VWS V12.07,2013-03-18 19:34:00,
2013-03-18 14:39:00,27.4,23.5,29.67,ESE,106,0.0,2.0,85,0.00,,,0.00,VWS V12.07,2013-03-18 19:39:00,
2013-03-18 14:44:00,27.2,23.3,29.67,ENE,75,1.0,2.0,85,0.00,,,0.00,VWS V12.07,2013-03-18 19:44:00,
2013-03-18 14:49:00,27.1,23.5,29.67,ENE,75,0.0,2.0,86,0.00,,,0.00,VWS V12.07,2013-03-18 19:49:00,
2013-03-18 14:54:00,27.1,23.5,29.67,West,271,0.0,2.0,86,0.00,,,0.00,VWS V12.07,2013-03-18 19:54:00,
2013-03-18 15:04:00,27.0,23.6,29.66,NNW,336,0.0,1.0,87,0.00,,,0.00,VWS V12.07,2013-03-18 20:04:00,
2013-03-18 15:09:00,27.0,23.6,29.65,NNW,335,0.0,2.0,87,0.00,,,0.00,VWS V12.07,2013-03-18 20:09:00,
2013-03-18 15:14:00,27.1,23.8,29.65,NNW,335,1.0,2.0,87,0.00,,,0.00,VWS V12.07,2013-03-18 20:14:00,
2013-03-18 15:19:00,27.3,24.0,29.65,NNW,334,0.0,2.0,87,0.00,,,0.00,VWS V12.07,2013-03-18 20:19:00,
2013-03-18 15:24:00,27.4,24.0,29.65,NNW,334,0.0,2.0,87,0.00,,,0.00,VWS V12.07,2013-03-18 20:24:00,
2013-03-18 15:29:00,27.5,24.1,29.65,NNW,334,0.0,2.0,87,0.00,,,0.00,VWS V12.07,2013-03-18 20:29:00,
2013-03-18 15:34:00,27.6,24.2,29.65,NNW,334,0.0,0.0,87,0.00,,,0.00,VWS V12.07,2013-03-18 20:34:00,
2013-03-18 15:44:00,27.6,24.2,29.64,NNW,334,0.0,0.0,87,0.00,,,0.00,VWS V12.07,2013-03-18 20:44:00,
2013-03-18 15:49:00,27.7,24.3,29.64,NNW,335,0.0,1.0,87,0.00,,,0.00,VWS V12.07,2013-03-18 20:49:00,
2013-03-18 15:54:00,27.6,24.2,29.64,NNW,335,0.0,1.0,87,0.00,,,0.00,VWS V12.07,2013-03-18 20:54:00,
2013-03-18 15:59:00,27.6,24.2,29.64,NNW,333,0.0,2.0,87,0.00,,,0.00,VWS V12.07,2013-03-18 20:59:00,
2013-03-18 16:04:00,27.6,24.2,29.64,West,268,0.0,5.0,87,0.00,,,0.00,VWS V12.07,2013-03-18 21:04:00,
2013-03-18 16:09:00,27.5,24.1,29.64,West,268,0.0,5.0,87,0.00,,,0.00,VWS V12.07,2013-03-18 21:09:00,
2013-03-18 16:14:00,27.5,24.1,29.64,West,268,0.0,5.0,87,0.00,,,0.00,VWS V12.07,2013-03-18 21:14:00,
2013-03-18 16:19:00,27.6,24.2,29.64,West,268,0.0,5.0,87,0.00,,,0.00,VWS V12.07,2013-03-18 21:19:00,
2013-03-18 16:24:00,27.6,24.2,29.64,West,268,0.0,5.0,87,0.00,,,0.00,VWS V12.07,2013-03-18 21:24:00,
2013-03-18 16:29:00,27.6,24.2,29.63,West,268,0.0,5.0,87,0.00,,,0.00,VWS V12.07,2013-03-18 21:29:00,
2013-03-18 16:39:00,27.4,23.8,29.63,NNW,342,2.0,3.0,86,0.00,,,0.00,VWS V12.07,2013-03-18 21:39:00,
2013-03-18 16:44:00,27.2,23.6,29.63,ENE,64,0.0,3.0,86,0.00,,,0.00,VWS V12.07,2013-03-18 21:44:00,
2013-03-18 16:49:00,27.2,23.6,29.63,ENE,64,1.0,3.0,86,0.00,,,0.00,VWS V12.07,2013-03-18 21:49:00,
2013-03-18 16:54:00,27.2,23.6,29.63,West,272,2.0,3.0,86,0.00,,,0.00,VWS V12.07,2013-03-18 21:54:00,
2013-03-18 16:59:00,27.1,23.8,29.63,SSW,212,0.0,3.0,87,0.00,,,0.00,VWS V12.07,2013-03-18 21:59:00,
2013-03-18 17:04:00,27.1,23.8,29.63,WSW,254,0.0,1.0,87,0.00,,,0.00,VWS V12.07,2013-03-18 22:04:00,
2013-03-18 17:09:00,27.0,23.6,29.63,ESE,102,0.0,1.0,87,0.00,,,0.00,VWS V12.07,2013-03-18 22:09:00,
2013-03-18 17:14:00,27.0,23.6,29.63,ESE,103,0.0,1.0,87,0.00,,,0.00,VWS V12.07,2013-03-18 22:14:00,
2013-03-18 17:19:00,27.0,23.9,29.63,ESE,103,0.0,1.0,88,0.00,,,0.00,VWS V12.07,2013-03-18 22:19:00,
2013-03-18 17:24:00,27.2,24.1,29.63,ENE,69,0.0,1.0,88,0.00,,,0.00,VWS V12.07,2013-03-18 22:24:00,
2013-03-18 17:34:00,27.2,24.1,29.62,ESE,121,0.0,1.0,88,0.00,,,0.00,VWS V12.07,2013-03-18 22:34:00,
2013-03-18 17:39:00,27.2,23.9,29.62,ESE,121,0.0,1.0,87,0.00,,,0.00,VWS V12.07,2013-03-18 22:39:00,
2013-03-18 17:44:00,27.1,23.8,29.62,ESE,121,0.0,1.0,87,0.00,,,0.00,VWS V12.07,2013-03-18 22:44:00,
2013-03-18 17:54:00,26.9,23.8,29.62,ESE,119,0.0,1.0,88,0.00,,,0.00,VWS V12.07,2013-03-18 22:54:00,
2013-03-18 17:59:00,26.8,23.7,29.62,ESE,119,0.0,1.0,88,0.00,,,0.00,VWS V12.07,2013-03-18 22:59:00,
2013-03-18 18:04:00,26.7,23.6,29.62,ESE,119,0.0,0.0,88,0.00,,,0.00,VWS V12.07,2013-03-18 23:04:00,
2013-03-18 18:09:00,26.7,23.6,29.61,ESE,119,0.0,0.0,88,0.00,,,0.00,VWS V12.07,2013-03-18 23:09:00,
2013-03-18 18:14:00,26.6,23.8,29.61,ESE,119,0.0,0.0,89,0.00,,,0.00,VWS V12.07,2013-03-18 23:14:00,
2013-03-18 18:24:00,26.4,23.6,29.61,ESE,119,0.0,0.0,89,0.00,,,0.00,VWS V12.07,2013-03-18 23:24:00,
2013-03-18 18:29:00,26.3,23.5,29.61,ESE,121,0.0,0.0,89,0.00,,,0.00,VWS V12.07,2013-03-18 23:29:00,
2013-03-18 18:39:00,26.3,23.5,29.61,ESE,121,0.0,0.0,89,0.00,,,0.00,VWS V12.07,2013-03-18 23:39:00,
2013-03-18 18:49:00,26.2,23.7,29.61,ESE,121,0.0,0.0,90,0.00,,,0.00,VWS V12.07,2013-03-18 23:49:00,
2013-03-18 18:54:00,26.2,23.7,29.61,ESE,121,0.0,0.0,90,0.00,,,0.00,VWS V12.07,2013-03-18 23:54:00,
2013-03-18 18:59:00,26.2,23.7,29.61,ESE,121,0.0,0.0,90,0.00,,,0.00,VWS V12.07,2013-03-18 23:59:00,
2013-03-18 19:04:00,26.1,23.6,29.60,ESE,121,0.0,0.0,90,0.00,,,0.00,VWS V12.07,2013-03-19 00:04:00,
2013-03-18 19:09:00,26.1,23.6,29.60,ESE,121,0.0,0.0,90,0.00,,,0.00,VWS V12.07,2013-03-19 00:09:00,
2013-03-18 19:14:00,26.0,23.5,29.60,ESE,121,0.0,0.0,90,0.00,,,0.00,VWS V12.07,2013-03-19 00:14:00,
2013-03-18 19:19:00,25.9,23.4,29.60,ESE,121,0.0,0.0,90,0.00,,,0.00,VWS V12.07,2013-03-19 00:19:00,
2013-03-18 19:24:00,25.8,23.3,29.60,ESE,121,0.0,0.0,90,0.00,,,0.00,VWS V12.07,2013-03-19 00:24:00,
2013-03-18 19:34:00,25.7,23.2,29.60,ESE,121,0.0,0.0,90,0.00,,,0.00,VWS V12.07,2013-03-19 00:34:00,
2013-03-18 19:39:00,25.7,23.2,29.60,ESE,121,0.0,0.0,90,0.00,,,0.00,VWS V12.07,2013-03-19 00:39:00,
2013-03-18 19:44:00,25.7,23.2,29.60,ESE,121,0.0,0.0,90,0.00,,,0.00,VWS V12.07,2013-03-19 00:44:00,
2013-03-18 19:49:00,25.6,23.1,29.60,ESE,121,0.0,0.0,90,0.00,,,0.00,VWS V12.07,2013-03-19 00:49:00,
2013-03-18 19:59:00,25.5,23.0,29.59,ESE,121,0.0,0.0,90,0.00,,,0.00,VWS V12.07,2013-03-19 00:59:00,
2013-03-18 20:04:00,25.5,23.2,29.59,ESE,121,0.0,0.0,91,0.00,,,0.00,VWS V12.07,2013-03-19 01:04:00,
2013-03-18 20:09:00,25.4,23.1,29.59,ESE,121,0.0,0.0,91,0.00,,,0.00,VWS V12.07,2013-03-19 01:09:00,
2013-03-18 20:19:00,25.4,23.1,29.59,ESE,121,0.0,0.0,91,0.00,,,0.00,VWS V12.07,2013-03-19 01:19:00,
2013-03-18 20:24:00,25.4,23.1,29.59,SW,236,1.0,6.0,91,0.00,,,0.00,VWS V12.07,2013-03-19 01:24:00,
2013-03-18 20:29:00,25.2,22.7,29.59,WSW,254,0.0,7.0,90,0.00,,,0.00,VWS V12.07,2013-03-19 01:29:00,
2013-03-18 20:34:00,24.9,22.4,29.60,WSW,246,2.0,6.0,90,0.00,,,0.00,VWS V12.07,2013-03-19 01:34:00,
2013-03-18 20:39:00,24.4,21.6,29.60,SW,236,0.0,7.0,89,0.00,,,0.00,VWS V12.07,2013-03-19 01:39:00,
2013-03-18 20:49:00,23.7,20.7,29.60,West,268,2.0,12.0,88,0.00,,,0.00,VWS V12.07,2013-03-19 01:49:00,
2013-03-18 20:54:00,23.4,20.4,29.61,WSW,247,0.0,12.0,88,0.00,,,0.00,VWS V12.07,2013-03-19 01:54:00,
2013-03-18 21:04:00,22.9,19.6,29.61,SW,221,1.0,7.0,87,0.00,,,0.00,VWS V12.07,2013-03-19 02:04:00,
2013-03-18 21:09:00,22.5,19.2,29.61,West,276,0.0,9.0,87,0.00,,,0.00,VWS V12.07,2013-03-19 02:09:00,
2013-03-18 21:19:00,21.6,18.1,29.61,WSW,247,1.0,9.0,86,0.00,,,0.00,VWS V12.07,2013-03-19 02:19:00,
2013-03-18 21:24:00,21.2,17.7,29.61,WSW,257,4.0,9.0,86,0.00,,,0.00,VWS V12.07,2013-03-19 02:24:00,
2013-03-18 21:29:00,20.8,17.3,29.61,SW,226,1.0,9.0,86,0.00,,,0.00,VWS V12.07,2013-03-19 02:29:00,
2013-03-18 21:39:00,20.3,16.5,29.61,WSW,238,1.0,11.0,85,0.00,,,0.00,VWS V12.07,2013-03-19 02:39:00,
2013-03-18 21:44:00,19.9,15.9,29.61,WSW,251,2.0,12.0,84,0.00,,,0.00,VWS V12.07,2013-03-19 02:44:00,
2013-03-18 21:49:00,19.7,15.7,29.62,WNW,290,2.0,12.0,84,0.00,,,0.00,VWS V12.07,2013-03-19 02:49:00,
2013-03-18 21:54:00,19.5,15.5,29.62,North,355,0.0,12.0,84,0.00,,,0.00,VWS V12.07,2013-03-19 02:54:00,
2013-03-18 21:59:00,19.3,15.0,29.62,West,260,0.0,13.0,83,0.00,,,0.00,VWS V12.07,2013-03-19 02:59:00,
2013-03-18 22:04:00,19.1,15.1,29.62,SW,219,2.0,9.0,84,0.00,,,0.00,VWS V12.07,2013-03-19 03:04:00,
2013-03-18 22:14:00,18.7,16.8,29.62,WSW,252,1.0,11.0,92,0.00,,,0.00,VWS V12.07,2013-03-19 03:14:00,
2013-03-18 22:24:00,18.3,14.3,29.63,WNW,302,3.0,11.0,84,0.00,,,0.00,VWS V12.07,2013-03-19 03:24:00,
2013-03-18 22:34:00,17.9,13.9,29.63,West,267,1.0,9.0,84,0.00,,,0.00,VWS V12.07,2013-03-19 03:34:00,
2013-03-18 22:39:00,17.8,13.8,29.63,WSW,240,2.0,9.0,84,0.00,,,0.00,VWS V12.07,2013-03-19 03:39:00,
2013-03-18 22:44:00,17.6,13.6,29.63,SW,229,0.0,9.0,84,0.00,,,0.00,VWS V12.07,2013-03-19 03:44:00,
2013-03-18 22:49:00,17.3,13.3,29.63,WSW,254,3.0,9.0,84,0.00,,,0.00,VWS V12.07,2013-03-19 03:49:00,
2013-03-18 22:54:00,17.0,13.3,29.63,WSW,246,4.0,9.0,85,0.00,,,0.00,VWS V12.07,2013-03-19 03:54:00,
2013-03-18 22:59:00,16.8,13.1,29.63,SSW,209,2.0,12.0,85,0.00,,,0.00,VWS V12.07,2013-03-19 03:59:00,
2013-03-18 23:04:00,16.6,12.9,29.63,WSW,252,3.0,4.0,85,0.00,,,0.00,VWS V12.07,2013-03-19 04:04:00,
2013-03-18 23:09:00,16.5,13.1,29.63,West,268,3.0,5.0,86,0.00,,,0.00,VWS V12.07,2013-03-19 04:09:00,
2013-03-18 23:14:00,16.4,12.9,29.63,West,259,1.0,8.0,86,0.00,,,0.00,VWS V12.07,2013-03-19 04:14:00,
2013-03-18 23:19:00,16.3,12.9,29.63,WSW,238,2.0,8.0,86,0.00,,,0.00,VWS V12.07,2013-03-19 04:19:00,
2013-03-18 23:24:00,16.3,12.9,29.63,WSW,244,2.0,9.0,86,0.00,,,0.00,VWS V12.07,2013-03-19 04:24:00,
2013-03-18 23:29:00,16.2,12.8,29.63,WNW,296,2.0,9.0,86,0.00,,,0.00,VWS V12.07,2013-03-19 04:29:00,
2013-03-18 23:34:00,16.1,12.7,29.63,West,272,1.0,4.0,86,0.00,,,0.00,VWS V12.07,2013-03-19 04:34:00,
2013-03-18 23:44:00,16.0,12.6,29.63,West,273,5.0,5.0,86,0.00,,,0.00,VWS V12.07,2013-03-19 04:44:00,
2013-03-18 23:49:00,15.9,12.5,29.63,West,273,2.0,6.0,86,0.00,,,0.00,VWS V12.07,2013-03-19 04:49:00,
2013-03-18 23:59:00,15.8,12.4,29.63,SW,233,1.0,11.0,86,0.00,,,0.00,VWS V12.07,2013-03-19 04:59:00,